Aviation Digital Data Service (ADDS)

Output produced by TAFs form (0211 UTC 24 November 2017)
found at http://www.aviationweather.gov/adds/tafs/
 
EGPD 240150Z AUTO 27016KT 9999 NCD 02/M02 Q0999 NOSIG
TAF EGPD 232256Z 2400/2424 25009KT 9999 FEW045